Hays, KS (67667)

5:38 AM CDT on October 31, 2014 (GMT -0500)
Rural Ellis Co. | Change Station
CLOSE
Current Station
Personal Weather Station
Location: Hays, KS
Elevation: 2077 ft
Nearby Weather Stations
Active Advisory: Freeze Warning

Elev 2077 ft 38.81 °N, 99.37 °W | Updated 2 minutes ago

Clear
Clear
34.3 °F
Feels Like 27 °F
N
9.9
Wind Variable Wind from NE

Today
High -- | Low -- °F
--% Chance of Precip.
Yesterday
High -- | Low -- °F
Precip. -- in
8:03 AM 6:38 PM
First Quarter, 54% visible
Pressure 30.47 in
Visibility 10.0 miles
Clouds Scattered Clouds 1500 ft
Windchill 27 °F
Dew Point 32 °F
Humidity 93%
Rainfall 0.00 in
Snow Depth Not available.
UV 0 out of 12
Pollen 2.40 out of 12
Air Quality Not available.
Flu Activity Not available.
METAR KHYS 311035Z AUTO 01010KT 10SM SCT015 02/M03 A3047 RMK AO1

More Conditions Fewer Conditions

Pressure 30.47 in
Visibility 10.0 miles
Clouds Scattered Clouds 1500 ft
Windchill 27 °F
Dew Point 32 °F
Humidity 93%
Rainfall 0.00 in
Snow Depth Not available.
UV 0 out of 12
Pollen 2.40 out of 12
Air Quality Not available.
Flu Activity Not available.
METAR KHYS 311035Z AUTO 01010KT 10SM SCT015 02/M03 A3047 RMK AO1

More Conditions Fewer Conditions

10-Day Weather Forecast

Almanac

Astronomy

Oct. 31, 2014 Rise Set
Actual Time
Civil Twilight
Nautical Twilight
Astronomical Twilight
Moon
Length of Visible Light
Length of Day
Tomorrow will be .
, % of the Moon is Illuminated

Today's Extremes

State Highs State Lows

Community

WunderPhotos

Upload Photos

1,766,580 photos uploaded!

WunderBlogs® & News

Nearby

Air Quality

  Air Quality AQ Index Pollutant
Not available.

Snow Depth

Station Depth Elevation

Earthquake Activity

City Distance Mag. Time & Date
Minimum magnitude displayed is 2.5.

Coastal Water Temperatures

Place Temperature

Nearby Weather Stations